Time;durP1;ratioP1;P1;durP2;ratioP2;P2;SDS_P1;SDS_P2;PMS_P1;PMS_P2;Temp;Humidity;BMP_temperature;BMP_pressure;BME280_temperature;BME280_humidity;BME280_pressure;Samples;Min_cycle;Max_cycle;Signal;HPM_P1;HPM_P2
2022/07/03 00:01:32;;;;;;;10.65;4.85;;;;;;;14.56;68.03;101327.72;1861300;77;20838;-92
2022/07/03 00:03:59;;;;;;;6.95;5.10;;;;;;;14.54;68.13;101326.97;1861637;77;20914;-90
2022/07/03 00:06:26;;;;;;;7.22;5.85;;;;;;;14.51;68.14;101327.15;1860278;77;20919;-91
2022/07/03 00:08:54;;;;;;;7.35;6.05;;;;;;;14.49;68.22;101326.40;1862521;77;20919;-91
2022/07/03 00:11:21;;;;;;;6.83;5.53;;;;;;;14.47;68.23;101325.65;1863721;77;20926;-90
2022/07/03 00:13:49;;;;;;;7.75;4.90;;;;;;;14.43;68.24;101325.50;1863865;77;20871;-91
2022/07/03 00:16:16;;;;;;;6.42;5.15;;;;;;;14.42;68.29;101323.80;1864823;77;21154;-89
2022/07/03 00:18:43;;;;;;;6.95;5.60;;;;;;;14.37;68.40;101329.84;1865695;77;20958;-88
2022/07/03 00:21:11;;;;;;;7.87;5.25;;;;;;;14.37;68.40;101329.84;1864433;77;20902;-89
2022/07/03 00:23:52;;;;;;;6.25;4.60;;;;;;;14.35;68.61;101331.73;1863543;77;20907;-91
2022/07/03 00:26:20;;;;;;;5.30;4.80;;;;;;;14.31;68.88;101329.28;1863234;76;20863;-91
2022/07/03 00:28:47;;;;;;;6.33;4.78;;;;;;;14.29;68.99;101320.64;1863589;77;21127;-91
2022/07/03 00:31:14;;;;;;;7.85;5.05;;;;;;;14.29;69.14;101322.41;1863919;77;20875;-91
2022/07/03 00:33:41;;;;;;;7.70;5.00;;;;;;;14.27;69.35;101313.75;1864407;77;20840;-91
2022/07/03 00:36:08;;;;;;;7.95;4.60;;;;;;;14.26;69.14;101314.23;1865882;76;20844;-91
2022/07/03 00:38:35;;;;;;;6.62;4.50;;;;;;;14.26;68.94;101313.39;1864387;77;20875;-92
2022/07/03 00:41:03;;;;;;;7.58;5.58;;;;;;;14.23;68.81;101314.44;1863687;77;21404;-91
2022/07/03 00:43:30;;;;;;;8.90;5.05;;;;;;;14.20;68.87;101309.34;1863584;77;20868;-90
2022/07/03 00:46:08;;;;;;;7.42;4.10;;;;;;;14.18;69.22;101305.95;1863929;77;20868;-89
2022/07/03 00:48:37;;;;;;;7.42;5.12;;;;;;;14.18;69.25;101305.11;1809541;77;21450;-90
2022/07/03 00:51:05;;;;;;;5.55;4.60;;;;;;;14.14;69.08;101304.48;1864449;77;20903;-90
2022/07/03 00:53:32;;;;;;;7.47;4.42;;;;;;;14.13;69.02;101306.72;1865896;77;21228;-91
2022/07/03 00:56:02;;;;;;;6.97;4.20;;;;;;;14.10;69.24;101300.34;1866294;77;20859;-92
2022/07/03 00:58:29;;;;;;;4.55;4.10;;;;;;;14.08;69.57;101292.99;1866583;77;20910;-91
2022/07/03 01:00:57;;;;;;;4.95;4.15;;;;;;;14.06;69.61;101284.33;1866301;77;20879;-91
2022/07/03 01:03:25;;;;;;;7.78;4.65;;;;;;;14.05;69.71;101290.53;1865136;77;20911;-92
2022/07/03 01:05:55;;;;;;;5.70;4.00;;;;;;;14.04;69.57;101299.41;1863476;77;21131;-92
2022/07/03 01:08:51;;;;;;;7.95;4.85;;;;;;;14.00;69.68;101297.90;1862356;77;21329;-91
2022/07/03 01:11:42;;;;;;;10.05;4.95;;;;;;;14.00;69.68;101297.90;1860854;77;20859;-92
2022/07/03 01:14:37;;;;;;;4.80;4.28;;;;;;;13.95;69.75;101303.47;1859611;77;20978;-92
2022/07/03 01:17:07;;;;;;;9.70;4.97;;;;;;;13.93;70.19;101305.83;1861369;77;20927;-92
2022/07/03 01:19:42;;;;;;;6.65;4.20;;;;;;;13.91;70.42;101306.40;1863517;76;21215;-91
2022/07/03 01:22:36;;;;;;;3.98;3.55;;;;;;;13.87;70.48;101307.92;1862710;77;20872;-91
2022/07/03 01:25:24;;;;;;;4.03;3.72;;;;;;;13.85;70.67;101303.66;1860768;77;21499;-91
2022/07/03 01:28:10;;;;;;;4.72;3.02;;;;;;;13.82;70.86;101301.23;1860747;77;20851;-92
2022/07/03 01:30:42;;;;;;;4.33;3.92;;;;;;;13.82;71.11;101298.59;1861983;77;20875;-91
2022/07/03 01:33:12;;;;;;;7.50;4.53;;;;;;;13.82;70.86;101298.11;1861626;77;21158;-87
2022/07/03 01:35:41;;;;;;;5.72;3.60;;;;;;;13.82;70.62;101299.91;1862599;77;20840;-90
2022/07/03 01:38:12;;;;;;;4.05;3.50;;;;;;;13.80;70.64;101300.48;1863180;77;20863;-89
2022/07/03 01:40:41;;;;;;;5.10;4.25;;;;;;;13.78;70.73;101300.56;1863541;77;20879;-86
2022/07/03 01:43:10;;;;;;;8.05;4.30;;;;;;;13.76;70.82;101302.47;1861480;76;21389;-91
2022/07/03 01:45:44;;;;;;;8.05;4.47;;;;;;;13.75;70.68;101307.83;1860824;77;22458;-90
2022/07/03 01:48:12;;;;;;;5.97;4.85;;;;;;;13.71;70.63;101300.58;1861393;77;26555;-91
2022/07/03 01:50:39;;;;;;;10.20;3.80;;;;;;;13.68;70.81;101309.52;1861457;77;20785;-91
2022/07/03 01:53:09;;;;;;;5.10;3.80;;;;;;;13.67;71.04;101302.58;1860828;77;20958;-91
2022/07/03 01:55:39;;;;;;;5.03;4.60;;;;;;;13.67;71.05;101313.12;1863062;77;21378;-90
2022/07/03 01:58:05;;;;;;;4.28;3.67;;;;;;;13.68;70.92;101313.95;1862438;77;21182;-90
2022/07/03 02:00:47;;;;;;;6.15;4.78;;;;;;;13.66;70.81;101315.84;1862030;77;20931;-91
2022/07/03 02:03:22;;;;;;;7.92;4.33;;;;;;;13.63;70.80;101306.34;1835239;76;20899;-90
2022/07/03 02:05:49;;;;;;;5.85;3.47;;;;;;;13.61;70.89;101310.02;1855032;76;20919;-89
2022/07/03 02:08:56;;;;;;;6.97;4.20;;;;;;;13.58;71.07;101312.82;1859653;77;20877;-90
2022/07/03 02:11:24;;;;;;;7.15;3.45;;;;;;;13.56;71.17;101310.30;1850067;77;20960;-90
2022/07/03 02:14:19;;;;;;;7.40;4.20;;;;;;;13.54;71.49;101309.55;1851765;76;20917;-90
2022/07/03 02:17:20;;;;;;;5.15;3.62;;;;;;;13.55;71.56;101310.38;1850481;76;20953;-90
2022/07/03 02:20:00;;;;;;;3.85;3.40;;;;;;;13.55;71.72;101313.02;1849936;77;21509;-90
2022/07/03 02:22:31;;;;;;;6.83;3.98;;;;;;;13.55;72.00;101311.22;1849906;77;20838;-90
2022/07/03 02:25:15;;;;;;;5.85;3.65;;;;;;;13.55;72.22;101302.00;1849992;77;21263;-91
2022/07/03 02:27:44;;;;;;;5.72;4.15;;;;;;;13.57;72.29;101304.07;1850019;77;20892;-92
2022/07/03 02:30:11;;;;;;;7.67;4.45;;;;;;;13.59;72.38;101300.88;1849839;77;20869;-89
2022/07/03 02:32:46;;;;;;;3.87;3.47;;;;;;;13.61;72.46;101292.88;1849923;77;20885;-91
2022/07/03 02:35:29;;;;;;;3.95;3.65;;;;;;;13.64;72.33;101290.05;1825329;77;20984;-91
2022/07/03 02:38:00;;;;;;;5.30;3.98;;;;;;;13.68;72.14;101291.08;1849741;77;21217;-90
2022/07/03 02:40:59;;;;;;;7.12;3.77;;;;;;;13.71;71.95;101293.14;1849569;76;20967;-92
2022/07/03 02:43:43;;;;;;;7.40;3.98;;;;;;;13.74;71.82;101296.89;1849038;76;20917;-91
2022/07/03 02:46:48;;;;;;;10.35;3.77;;;;;;;13.76;71.67;101301.60;1849886;77;20869;-92
2022/07/03 02:49:35;;;;;;;9.43;4.28;;;;;;;13.78;71.66;101298.41;1850866;77;20885;-91
2022/07/03 02:52:12;;;;;;;8.83;3.98;;;;;;;13.82;71.41;101301.23;1851959;77;21209;-91
2022/07/03 02:54:46;;;;;;;5.97;3.87;;;;;;;13.83;71.34;101303.78;1795688;80;20880;-90
2022/07/03 02:57:16;;;;;;;4.30;3.47;;;;;;;13.85;71.69;101308.94;1796435;79;20922;-90
2022/07/03 02:59:56;;;;;;;6.15;3.83;;;;;;;13.86;72.27;101305.37;1795313;79;20950;-91
2022/07/03 03:02:56;;;;;;;4.45;3.58;;;;;;;13.89;72.89;101302.08;1779028;80;21006;-91
2022/07/03 03:05:40;;;;;;;5.03;4.30;;;;;;;13.97;73.44;101306.86;1778861;79;21197;-92
2022/07/03 03:08:43;;;;;;;8.78;4.70;;;;;;;13.97;73.44;101306.86;1778676;79;20845;-91
2022/07/03 03:11:23;;;;;;;5.47;3.98;;;;;;;14.03;73.78;101309.11;1783906;78;20874;-91
2022/07/03 03:13:53;;;;;;;5.92;4.03;;;;;;;14.10;73.84;101310.89;1793423;78;20855;-89
2022/07/03 03:16:20;;;;;;;9.83;3.67;;;;;;;14.18;73.67;101316.50;1793637;78;20906;-90
2022/07/03 03:18:47;;;;;;;6.87;3.90;;;;;;;14.25;73.46;101312.99;1793698;80;21272;-92
2022/07/03 03:21:17;;;;;;;6.62;4.58;;;;;;;14.31;73.29;101305.53;1793694;78;21004;-92
2022/07/03 03:23:54;;;;;;;6.60;4.17;;;;;;;14.38;73.11;101307.78;1793545;80;20890;-92
2022/07/03 03:26:24;;;;;;;8.70;3.90;;;;;;;14.45;72.79;101309.06;1793434;78;20984;-90
2022/07/03 03:28:51;;;;;;;6.92;3.42;;;;;;;14.53;72.44;101310.73;1793584;80;20898;-89
2022/07/03 03:31:18;;;;;;;4.25;3.70;;;;;;;14.60;72.25;101303.30;1794241;78;21821;-92
2022/07/03 03:33:49;;;;;;;11.90;4.50;;;;;;;14.68;72.15;101305.80;1793779;80;21001;-92
2022/07/03 03:36:19;;;;;;;8.13;3.30;;;;;;;14.77;72.04;101303.52;1792717;79;20957;-92
2022/07/03 03:38:48;;;;;;;6.47;3.80;;;;;;;14.87;71.90;101305.89;1793653;78;21399;-91
2022/07/03 03:41:15;;;;;;;6.60;3.98;;;;;;;14.97;71.72;101305.66;1793588;78;20930;-90
2022/07/03 03:43:43;;;;;;;5.30;3.87;;;;;;;15.19;71.39;101306.84;1793895;78;21300;-91
2022/07/03 03:46:10;;;;;;;6.28;3.58;;;;;;;15.19;71.39;101306.84;1794130;78;20918;-89
2022/07/03 03:48:39;;;;;;;5.65;3.20;;;;;;;15.29;71.63;101305.24;1795933;78;20954;-90
2022/07/03 03:51:07;;;;;;;4.55;3.33;;;;;;;15.41;71.42;101307.54;1796475;78;20965;-92
2022/07/03 03:53:34;;;;;;;3.90;2.85;;;;;;;15.53;71.27;101314.59;1795840;78;20969;-91
2022/07/03 03:56:12;;;;;;;2.77;2.58;;;;;;;15.76;71.05;101301.09;1796150;80;20969;-90
2022/07/03 03:58:39;;;;;;;4.22;3.40;;;;;;;15.76;71.05;101301.09;1794740;78;20878;-91
2022/07/03 04:01:08;;;;;;;5.10;3.70;;;;;;;15.92;70.63;101296.91;1793620;79;20962;-91
2022/07/03 04:03:36;;;;;;;7.00;3.12;;;;;;;16.06;70.32;101296.75;1793615;78;21391;-91
2022/07/03 04:06:03;;;;;;;6.92;3.02;;;;;;;16.21;69.88;101298.77;1793651;78;20961;-92
2022/07/03 04:08:32;;;;;;;2.92;2.40;;;;;;;16.34;69.54;101297.38;1794833;78;20874;-92
2022/07/03 04:10:59;;;;;;;7.58;3.50;;;;;;;16.48;69.05;101298.54;1820128;79;20903;-92
2022/07/03 04:13:25;;;;;;;7.80;3.25;;;;;;;16.65;68.79;101295.97;1820831;79;20986;-92
2022/07/03 04:15:53;;;;;;;8.55;3.35;;;;;;;16.94;68.49;101304.40;1820836;79;20895;-91
2022/07/03 04:18:20;;;;;;;6.05;3.12;;;;;;;17.44;67.58;101301.45;1823002;77;20935;-90
2022/07/03 04:20:46;;;;;;;6.92;2.87;;;;;;;18.06;66.07;101296.62;1822097;79;21067;-91
2022/07/03 04:23:13;;;;;;;8.83;2.70;;;;;;;18.80;63.93;101296.73;1821940;79;20943;-89
2022/07/03 04:25:40;;;;;;;6.67;2.65;;;;;;;19.58;61.73;101293.17;1821814;79;20832;-90
2022/07/03 04:28:07;;;;;;;4.85;2.40;;;;;;;20.32;60.03;101295.50;1820485;78;20943;-91
2022/07/03 04:30:34;;;;;;;4.45;2.65;;;;;;;21.01;57.98;101295.83;1820079;79;20963;-92
2022/07/03 04:33:00;;;;;;;3.20;2.60;;;;;;;21.65;56.05;101292.05;1820101;79;21900;-91
2022/07/03 04:35:27;;;;;;;6.35;2.72;;;;;;;22.25;53.50;101288.41;1819798;79;20833;-91
2022/07/03 04:37:55;;;;;;;2.72;2.52;;;;;;;22.77;51.69;101287.70;1819896;79;20959;-91
2022/07/03 04:40:22;;;;;;;2.72;1.95;;;;;;;23.26;50.50;101284.55;1819929;79;21334;-92
2022/07/03 04:42:49;;;;;;;6.08;2.45;;;;;;;23.79;49.22;101292.35;1821287;79;20852;-91
2022/07/03 04:45:16;;;;;;;2.90;2.05;;;;;;;24.36;47.59;101284.09;1821361;78;21127;-90
2022/07/03 04:47:43;;;;;;;3.45;2.27;;;;;;;24.88;46.07;101285.13;1823006;77;20967;-92
2022/07/03 04:50:10;;;;;;;3.50;2.42;;;;;;;25.34;44.76;101282.69;1822932;79;20856;-91
2022/07/03 04:52:37;;;;;;;3.08;1.67;;;;;;;25.75;43.51;101278.51;1822612;79;20939;-94
2022/07/03 04:55:06;;;;;;;4.58;2.12;;;;;;;26.13;42.58;101270.59;1821508;79;20939;-91
2022/07/03 04:57:32;;;;;;;3.40;2.30;;;;;;;26.49;41.80;101277.22;1821002;79;21337;-91
2022/07/03 05:00:00;;;;;;;2.25;2.02;;;;;;;26.81;41.18;101274.28;1820519;78;21362;-91
2022/07/03 05:02:27;;;;;;;2.65;2.30;;;;;;;27.17;40.41;101272.70;1820220;79;21014;-91
2022/07/03 05:04:54;;;;;;;6.33;2.25;;;;;;;27.49;39.48;101272.36;1820126;78;20912;-91
2022/07/03 05:07:22;;;;;;;2.52;2.10;;;;;;;27.81;38.99;101273.47;1819779;79;20884;-93
2022/07/03 05:09:49;;;;;;;3.15;1.67;;;;;;;28.11;37.73;101268.86;1812870;77;21228;-91
2022/07/03 05:12:18;;;;;;;4.35;2.10;;;;;;;28.37;37.09;101276.38;1804353;79;21451;-91
2022/07/03 05:14:46;;;;;;;2.75;1.87;;;;;;;28.56;36.91;101278.95;1804622;79;21450;-90
2022/07/03 05:17:13;;;;;;;2.50;2.25;;;;;;;28.75;36.72;101281.50;1804306;79;20899;-90
2022/07/03 05:19:41;;;;;;;4.83;2.33;;;;;;;29.07;36.25;101277.87;1804365;79;20984;-93
2022/07/03 05:22:08;;;;;;;4.90;1.95;;;;;;;29.38;35.76;101280.69;1804865;79;21229;-92
2022/07/03 05:24:36;;;;;;;4.37;2.42;;;;;;;29.65;34.94;101281.63;1804932;79;20947;-90
2022/07/03 05:27:04;;;;;;;5.10;1.90;;;;;;;29.89;34.34;101288.41;1805965;79;20931;-88
2022/07/03 05:29:31;;;;;;;2.90;2.00;;;;;;;30.07;34.22;101282.41;1806041;79;20882;-88
2022/07/03 05:31:59;;;;;;;3.67;1.87;;;;;;;30.22;33.80;101275.48;1804600;79;20883;-91
2022/07/03 05:34:26;;;;;;;4.35;2.35;;;;;;;30.42;33.32;101276.88;1803732;79;21249;-91
2022/07/03 05:36:53;;;;;;;4.22;2.37;;;;;;;30.55;33.53;101266.88;1804342;78;21613;-91
2022/07/03 05:39:32;;;;;;;10.30;2.65;;;;;;;30.69;33.23;101271.77;1804441;78;20867;-92
2022/07/03 05:42:02;;;;;;;5.37;2.25;;;;;;;30.87;32.94;101269.80;1804555;79;21388;-91
2022/07/03 05:44:29;;;;;;;11.93;3.77;;;;;;;31.10;32.60;101267.14;1806089;79;20875;-89
2022/07/03 05:46:56;;;;;;;8.80;2.60;;;;;;;31.36;32.26;101262.99;1806695;79;21161;-91
2022/07/03 05:49:24;;;;;;;4.22;2.58;;;;;;;31.57;31.97;101262.41;1806736;79;21108;-89
2022/07/03 05:51:51;;;;;;;3.00;1.80;;;;;;;31.76;31.46;101253.88;1806862;78;20985;-91
2022/07/03 05:54:18;;;;;;;2.75;2.55;;;;;;;31.93;31.45;101261.00;1806239;79;20919;-91
2022/07/03 05:56:49;;;;;;;9.13;2.22;;;;;;;32.10;31.17;101248.58;1804654;79;20966;-91
2022/07/03 05:59:15;;;;;;;5.30;2.17;;;;;;;32.36;30.88;101258.94;1804174;78;21205;-91
2022/07/03 06:01:43;;;;;;;4.15;1.92;;;;;;;32.71;30.31;101253.04;1804284;78;21025;-91
2022/07/03 06:04:10;;;;;;;5.10;1.60;;;;;;;32.97;29.63;101250.05;1804513;78;20875;-90
2022/07/03 06:06:37;;;;;;;2.40;2.10;;;;;;;33.19;29.40;101253.16;1804203;78;21483;-90
2022/07/03 06:09:05;;;;;;;5.95;2.15;;;;;;;33.37;29.20;101250.98;1804488;77;20934;-91
2022/07/03 06:11:32;;;;;;;3.00;1.82;;;;;;;33.55;28.99;101247.40;1820073;78;21103;-91
2022/07/03 06:13:59;;;;;;;2.25;1.95;;;;;;;33.72;28.70;101250.86;1819988;78;21341;-90
2022/07/03 06:16:27;;;;;;;4.22;1.87;;;;;;;33.89;28.24;101253.23;1820025;79;20891;-90
2022/07/03 06:18:55;;;;;;;5.50;1.67;;;;;;;34.00;28.03;101248.89;1819818;78;21469;-91
2022/07/03 06:21:22;;;;;;;3.45;1.70;;;;;;;34.10;27.99;101244.23;1820092;79;20880;-92
2022/07/03 06:23:49;;;;;;;4.53;1.32;;;;;;;34.28;27.39;101240.08;1820423;79;21366;-91
2022/07/03 06:26:16;;;;;;;2.20;1.75;;;;;;;34.51;27.04;101236.56;1819938;78;21242;-90
2022/07/03 06:28:43;;;;;;;3.22;1.50;;;;;;;34.67;27.20;101235.88;1819943;79;21060;-90
2022/07/03 06:31:10;;;;;;;2.45;1.82;;;;;;;34.79;26.80;101221.41;1819901;78;20844;-91
2022/07/03 06:33:37;;;;;;;3.00;1.92;;;;;;;34.96;26.46;101225.06;1820026;78;20963;-89
2022/07/03 06:36:09;;;;;;;4.70;2.12;;;;;;;35.13;26.53;101223.83;1818688;79;20912;-89
2022/07/03 06:38:36;;;;;;;5.25;1.50;;;;;;;35.27;26.20;101227.91;1820290;78;20895;-90
2022/07/03 06:41:08;;;;;;;3.75;1.67;;;;;;;35.39;26.18;101222.95;1820711;79;20967;-90
2022/07/03 06:43:39;;;;;;;2.67;1.50;;;;;;;35.42;25.86;101227.40;1820118;78;21417;-89
2022/07/03 06:46:06;;;;;;;2.15;1.87;;;;;;;35.43;25.88;101222.22;1823049;77;20884;-89
2022/07/03 06:48:38;;;;;;;4.10;1.77;;;;;;;35.52;25.68;101221.30;1822223;78;21207;-90
2022/07/03 06:51:03;;;;;;;4.80;1.75;;;;;;;35.70;25.35;101221.66;1820962;78;21392;-89
2022/07/03 06:53:32;;;;;;;3.00;1.52;;;;;;;35.88;25.23;101209.69;1791419;79;20880;-90
2022/07/03 06:55:59;;;;;;;3.85;1.27;;;;;;;36.02;24.28;101212.41;1821135;78;20923;-90
2022/07/03 06:58:26;;;;;;;3.05;1.42;;;;;;;36.19;24.19;101220.62;1820078;79;20880;-89
2022/07/03 07:00:54;;;;;;;2.10;1.30;;;;;;;36.27;23.47;101214.75;1820080;79;21247;-89
2022/07/03 07:03:21;;;;;;;3.15;1.40;;;;;;;36.19;23.60;101209.69;1819621;78;20911;-91
2022/07/03 07:05:48;;;;;;;1.98;1.30;;;;;;;36.12;23.22;101217.78;1820019;79;20943;-90
2022/07/03 07:08:15;;;;;;;3.87;1.47;;;;;;;36.06;23.35;101201.80;1819898;78;20978;-90
2022/07/03 07:10:42;;;;;;;6.10;5.33;;;;;;;36.10;23.45;101208.42;1811128;77;20910;-89
2022/07/03 07:13:09;;;;;;;1.77;1.65;;;;;;;36.14;22.80;101208.80;1804254;79;21222;-92
2022/07/03 07:15:36;;;;;;;2.58;2.17;;;;;;;35.96;22.19;101209.30;1804415;79;20974;-90
2022/07/03 07:18:04;;;;;;;5.05;2.52;;;;;;;35.76;22.42;101202.13;1803878;79;20923;-88
2022/07/03 07:20:31;;;;;;;1.20;1.05;;;;;;;35.74;22.73;101205.64;1804104;79;21361;-89
2022/07/03 07:23:00;;;;;;;4.80;2.58;;;;;;;35.68;22.79;101212.89;1804233;79;20930;-88
2022/07/03 07:25:29;;;;;;;3.02;1.62;;;;;;;35.80;22.72;101197.84;1804009;79;21134;-89
2022/07/03 07:27:56;;;;;;;4.15;2.00;;;;;;;35.87;22.87;101202.05;1803622;78;20883;-89
2022/07/03 07:30:23;;;;;;;1.17;1.07;;;;;;;36.04;22.53;101204.80;1804133;79;20914;-89
2022/07/03 07:32:50;;;;;;;1.35;1.07;;;;;;;36.22;21.92;101202.39;1804814;79;21018;-90
2022/07/03 07:35:18;;;;;;;7.25;1.65;;;;;;;36.35;21.93;101191.63;1804780;79;20954;-90
2022/07/03 07:37:44;;;;;;;3.85;2.70;;;;;;;36.51;22.09;101189.98;1804560;79;21373;-91
2022/07/03 07:40:12;;;;;;;2.15;1.50;;;;;;;36.70;21.81;101195.45;1804351;78;20914;-91
2022/07/03 07:42:39;;;;;;;1.42;1.10;;;;;;;36.78;21.72;101201.58;1806974;78;20950;-90
2022/07/03 07:45:10;;;;;;;2.10;1.10;;;;;;;36.84;21.75;101194.56;1774267;78;20961;-95
2022/07/03 07:47:38;;;;;;;3.23;1.47;;;;;;;36.99;21.47;101204.02;1798969;79;20933;-94
2022/07/03 07:50:06;;;;;;;6.78;1.12;;;;;;;37.06;21.31;101197.27;1805055;79;21424;-92
2022/07/03 07:52:34;;;;;;;1.45;1.30;;;;;;;37.17;21.06;101193.33;1805002;79;21239;-89
2022/07/03 07:55:02;;;;;;;4.00;1.00;;;;;;;37.25;21.04;101193.70;1804496;79;20926;-92
2022/07/03 07:57:37;;;;;;;2.60;1.52;;;;;;;37.19;20.86;101191.16;1804080;79;20918;-90
2022/07/03 08:00:09;;;;;;;5.58;1.35;;;;;;;37.21;20.74;101181.61;1804163;78;20879;-92
2022/07/03 08:05:36;;;;;;;3.17;1.60;;;;;;;37.45;21.16;101184.88;1804481;79;20966;-88
2022/07/03 08:08:13;;;;;;;6.35;2.12;;;;;;;37.29;20.27;101189.92;1804208;79;21383;-89
2022/07/03 08:10:51;;;;;;;2.02;1.92;;;;;;;36.92;20.59;101187.26;1803986;77;21456;-88
2022/07/03 08:13:18;;;;;;;5.12;1.30;;;;;;;36.74;20.41;101175.83;1803990;78;20879;-90
2022/07/03 08:15:46;;;;;;;2.52;1.37;;;;;;;36.58;21.03;101180.23;1804220;78;21746;-88
2022/07/03 08:18:13;;;;;;;3.00;1.67;;;;;;;36.51;21.13;101174.41;1804093;79;20935;-88
2022/07/03 08:20:41;;;;;;;10.93;1.55;;;;;;;36.63;21.42;101171.58;1804291;78;20843;-90
2022/07/03 08:23:08;;;;;;;5.05;1.77;;;;;;;36.79;21.07;101167.13;1804212;78;21420;-89
2022/07/03 08:25:35;;;;;;;4.62;1.92;;;;;;;36.99;20.92;101172.58;1804138;79;20934;-90
2022/07/03 08:28:02;;;;;;;2.12;1.25;;;;;;;37.14;20.94;101171.42;1804179;79;21386;-87
2022/07/03 08:30:30;;;;;;;1.37;1.25;;;;;;;37.30;20.44;101163.65;1803830;78;20863;-88
2022/07/03 08:32:58;;;;;;;4.37;1.75;;;;;;;37.37;20.79;101164.81;1804144;79;20883;-92
2022/07/03 08:35:25;;;;;;;4.05;1.72;;;;;;;37.32;20.16;101165.59;1804849;79;20988;-91
2022/07/03 08:37:52;;;;;;;2.77;1.75;;;;;;;37.30;20.22;101165.02;1777282;79;20888;-93
2022/07/03 08:40:19;;;;;;;4.10;1.27;;;;;;;37.45;20.29;101160.25;1806687;78;21836;-88
2022/07/03 08:42:58;;;;;;;1.55;1.37;;;;;;;37.59;20.55;101166.16;1807462;78;21020;-91
2022/07/03 08:45:25;;;;;;;3.12;1.67;;;;;;;37.64;20.35;101160.75;1805552;78;21422;-89
2022/07/03 08:47:55;;;;;;;4.12;2.45;;;;;;;37.78;20.22;101158.95;1805349;79;20915;-91
2022/07/03 08:50:22;;;;;;;4.15;1.15;;;;;;;37.89;19.98;101164.23;1804679;79;21348;-89
2022/07/03 08:52:49;;;;;;;1.60;1.25;;;;;;;37.74;20.18;101155.34;1804224;79;21148;-90
2022/07/03 08:55:18;;;;;;;2.50;2.08;;;;;;;37.72;20.50;101160.25;1803986;79;21046;-89
2022/07/03 08:57:46;;;;;;;1.10;1.00;;;;;;;37.73;19.83;101158.33;1804366;79;21005;-89
2022/07/03 09:00:15;;;;;;;3.65;1.40;;;;;;;37.84;20.37;101152.41;1804194;78;21313;-89
2022/07/03 09:05:12;;;;;;;2.10;1.42;;;;;;;37.90;19.92;101147.25;1855240;77;22545;-90
2022/07/03 09:07:41;;;;;;;1.62;1.20;;;;;;;37.85;20.10;101152.70;1791129;78;20943;-89
2022/07/03 09:10:15;;;;;;;3.15;1.25;;;;;;;37.77;19.99;101158.09;1823135;78;21139;-89
2022/07/03 09:12:46;;;;;;;5.08;1.10;;;;;;;37.70;20.02;101161.60;1822169;78;20864;-90
2022/07/03 09:15:13;;;;;;;1.85;1.20;;;;;;;37.73;19.66;101160.55;1792017;78;20930;-90
2022/07/03 09:17:41;;;;;;;3.10;1.20;;;;;;;37.82;19.81;101165.01;1822714;78;20884;-89
2022/07/03 09:20:08;;;;;;;1.52;1.42;;;;;;;37.92;19.75;101165.06;1784117;78;20962;-92
2022/07/03 09:22:38;;;;;;;2.83;1.10;;;;;;;38.04;19.66;101155.87;1822608;78;21224;-89
2022/07/03 09:25:13;;;;;;;2.02;0.88;;;;;;;38.11;19.47;101153.72;1822548;78;20918;-91
2022/07/03 09:27:55;;;;;;;1.35;0.95;;;;;;;38.12;19.87;101155.39;1822446;78;20966;-91
2022/07/03 09:30:22;;;;;;;1.10;1.00;;;;;;;38.11;20.25;101157.83;1822553;78;20958;-90
2022/07/03 09:32:49;;;;;;;1.98;1.10;;;;;;;38.10;19.78;101161.67;1822599;78;20986;-91
2022/07/03 09:35:25;;;;;;;6.05;1.20;;;;;;;38.11;20.31;101153.20;1822285;78;22103;-91
2022/07/03 09:37:58;;;;;;;2.10;1.30;;;;;;;38.08;19.20;101156.45;1823698;78;20900;-88
2022/07/03 09:40:27;;;;;;;1.10;1.00;;;;;;;38.09;19.35;101152.64;1825779;78;20856;-89
2022/07/03 09:43:06;;;;;;;3.87;1.17;;;;;;;38.12;18.93;101143.88;1824071;78;20860;-91
2022/07/03 09:45:56;;;;;;;1.60;0.95;;;;;;;38.21;18.97;101142.84;1821256;78;21325;-89
2022/07/03 09:48:39;;;;;;;4.03;0.95;;;;;;;38.24;19.04;101141.48;1822986;78;21972;-89
2022/07/03 09:51:25;;;;;;;2.72;0.90;;;;;;;38.26;19.40;101141.50;1822110;78;20876;-90
2022/07/03 09:54:02;;;;;;;1.12;1.12;;;;;;;38.26;20.17;101136.02;1817618;78;20891;-90
2022/07/03 09:56:38;;;;;;;5.72;1.20;;;;;;;38.27;19.54;101125.36;1822666;78;20970;-91
2022/07/03 09:59:10;;;;;;;3.77;1.82;;;;;;;38.24;19.48;101130.53;1822459;78;20848;-89
2022/07/03 10:01:46;;;;;;;3.83;1.42;;;;;;;38.21;18.51;101127.78;1822503;78;21089;-90
2022/07/03 10:04:22;;;;;;;1.57;1.47;;;;;;;38.13;18.17;101126.38;1823286;78;21398;-89
2022/07/03 10:06:56;;;;;;;3.42;2.67;;;;;;;38.10;18.35;101117.84;1825974;78;20942;-89
2022/07/03 10:09:29;;;;;;;1.60;1.50;;;;;;;38.06;18.73;101118.91;1825878;78;20911;-90
2022/07/03 10:11:57;;;;;;;1.30;1.17;;;;;;;38.14;18.87;101112.94;1826089;78;20884;-90
2022/07/03 10:14:28;;;;;;;2.70;0.98;;;;;;;38.22;18.85;101110.78;1826084;78;21285;-90
2022/07/03 10:16:59;;;;;;;2.15;1.15;;;;;;;38.27;19.31;101108.91;1826188;78;20891;-91
2022/07/03 10:19:28;;;;;;;4.25;1.35;;;;;;;38.20;18.89;101108.33;1828131;78;20856;-90
2022/07/03 10:21:57;;;;;;;7.97;7.10;;;;;;;38.19;18.77;101105.30;1828392;77;20919;-90
2022/07/03 10:24:27;;;;;;;7.05;6.17;;;;;;;38.12;18.26;101101.97;1827365;78;20907;-90
2022/07/03 10:26:55;;;;;;;2.47;1.35;;;;;;;37.89;17.78;101097.14;1825321;78;22039;-89
2022/07/03 10:29:24;;;;;;;2.17;1.00;;;;;;;37.70;18.15;101097.27;1825514;78;20887;-91
2022/07/03 10:31:52;;;;;;;13.22;7.28;;;;;;;37.64;18.22;101090.09;1825795;78;20954;-88
2022/07/03 10:34:23;;;;;;;6.28;5.72;;;;;;;37.57;17.61;101093.61;1825469;78;20920;-89
2022/07/03 10:37:00;;;;;;;5.65;4.87;;;;;;;37.50;17.74;101091.05;1828415;78;20954;-89
2022/07/03 10:44:45;;;;;;;3.85;3.55;;;;;;;37.48;17.95;101094.59;1828598;78;21089;-89
2022/07/03 10:45:19;;;;;;;3.17;1.00;;;;;;;37.50;18.29;101085.03;1826518;78;21389;-89
2022/07/03 10:47:49;;;;;;;4.03;1.65;;;;;;;37.54;18.41;101090.82;1825760;78;20872;-90
2022/07/03 10:50:21;;;;;;;4.37;1.20;;;;;;;37.62;18.25;101078.06;1824838;78;20939;-89
2022/07/03 10:52:49;;;;;;;2.80;1.70;;;;;;;37.64;18.11;101077.27;1825709;78;21912;-90
2022/07/03 10:55:16;;;;;;;2.83;1.60;;;;;;;37.68;18.22;101081.65;1825315;78;20903;-92
2022/07/03 10:58:08;;;;;;;11.15;2.12;;;;;;;37.63;17.98;101081.63;1825706;78;20911;-91
2022/07/03 11:00:58;;;;;;;4.37;1.60;;;;;;;37.61;18.12;101075.58;1803865;78;20930;-91
2022/07/03 11:03:55;;;;;;;3.33;1.10;;;;;;;37.45;18.49;101078.70;1827757;78;20934;-90
2022/07/03 11:06:49;;;;;;;2.87;1.22;;;;;;;37.43;18.51;101071.30;1759910;81;21241;-90
2022/07/03 11:09:15;;;;;;;1.35;1.10;;;;;;;37.43;18.89;101067.20;1749499;80;20897;-90
2022/07/03 11:11:57;;;;;;;3.90;0.80;;;;;;;37.47;18.88;101064.22;1759000;80;20884;-90
2022/07/03 11:14:28;;;;;;;3.17;1.00;;;;;;;37.57;18.59;101054.73;1759133;80;20965;-91
2022/07/03 11:17:21;;;;;;;2.17;1.98;;;;;;;37.53;18.68;101062.64;1759519;81;20948;-90
2022/07/03 11:22:50;;;;;;;3.77;2.40;;;;;;;36.97;19.06;101063.44;1759360;80;21393;-90
2022/07/03 11:25:19;;;;;;;0.98;0.93;;;;;;;36.81;19.68;101065.19;1759290;81;20957;-89
2022/07/03 11:27:47;;;;;;;4.15;1.45;;;;;;;36.66;19.38;101061.77;1758932;81;20889;-90
2022/07/03 11:30:14;;;;;;;2.00;1.70;;;;;;;36.52;19.51;101057.72;1759399;80;21382;-90
2022/07/03 11:32:49;;;;;;;1.77;1.50;;;;;;;36.41;19.71;101058.67;1759382;80;21176;-90
2022/07/03 11:35:48;;;;;;;3.75;0.93;;;;;;;36.20;20.24;101060.33;1761792;80;21023;-89
2022/07/03 11:38:24;;;;;;;5.17;1.57;;;;;;;35.92;19.98;101057.16;1762023;79;20936;-90
2022/07/03 11:40:52;;;;;;;3.02;1.10;;;;;;;35.47;19.94;101048.80;1760116;80;21015;-89
2022/07/03 11:43:19;;;;;;;3.55;1.20;;;;;;;35.02;20.40;101046.09;1826265;77;21010;-89
2022/07/03 11:45:49;;;;;;;3.58;1.52;;;;;;;34.70;21.59;101040.28;1825355;78;21211;-89
2022/07/03 11:48:20;;;;;;;1.20;1.00;;;;;;;34.40;21.85;101046.20;1825384;78;20844;-89
2022/07/03 11:50:48;;;;;;;3.25;1.50;;;;;;;34.16;22.18;101041.86;1825007;78;21420;-92
2022/07/03 11:53:20;;;;;;;3.65;1.22;;;;;;;33.90;22.17;101042.61;1825128;78;20879;-90
2022/07/03 11:55:56;;;;;;;2.70;1.55;;;;;;;33.59;22.51;101039.70;1825959;77;20880;-91